sensor_id;sensor_type;location;lat;lon;timestamp;temperature;humidity
12588;DHT22;6359;51.450;7.346;2023-06-22T00:02:04;20.60;99.90
12588;DHT22;6359;51.450;7.346;2023-06-22T00:04:31;20.70;99.90
12588;DHT22;6359;51.450;7.346;2023-06-22T00:06:58;20.60;99.90
12588;DHT22;6359;51.450;7.346;2023-06-22T00:09:26;20.60;99.90
12588;DHT22;6359;51.450;7.346;2023-06-22T00:11:53;20.60;99.90
12588;DHT22;6359;51.450;7.346;2023-06-22T00:14:20;20.70;99.90
12588;DHT22;6359;51.450;7.346;2023-06-22T00:16:46;20.60;99.90
12588;DHT22;6359;51.450;7.346;2023-06-22T00:19:14;20.60;99.90
12588;DHT22;6359;51.450;7.346;2023-06-22T00:21:41;20.50;99.90
12588;DHT22;6359;51.450;7.346;2023-06-22T00:24:08;20.40;99.90
12588;DHT22;6359;51.450;7.346;2023-06-22T00:26:36;20.40;99.90
12588;DHT22;6359;51.450;7.346;2023-06-22T00:29:03;20.40;99.90
12588;DHT22;6359;51.450;7.346;2023-06-22T00:31:30;20.30;99.90
12588;DHT22;6359;51.450;7.346;2023-06-22T00:33:57;20.20;99.90
12588;DHT22;6359;51.450;7.346;2023-06-22T00:36:24;20.10;99.90
12588;DHT22;6359;51.450;7.346;2023-06-22T00:38:51;20.00;99.90
12588;DHT22;6359;51.450;7.346;2023-06-22T00:41:18;20.10;99.90
12588;DHT22;6359;51.450;7.346;2023-06-22T00:43:46;20.10;99.90
12588;DHT22;6359;51.450;7.346;2023-06-22T00:46:13;20.20;99.90
12588;DHT22;6359;51.450;7.346;2023-06-22T00:48:40;20.10;99.90
12588;DHT22;6359;51.450;7.346;2023-06-22T00:51:07;20.10;99.90
12588;DHT22;6359;51.450;7.346;2023-06-22T00:53:34;20.00;99.90
12588;DHT22;6359;51.450;7.346;2023-06-22T00:56:03;20.00;99.90
12588;DHT22;6359;51.450;7.346;2023-06-22T00:58:31;19.90;99.90
12588;DHT22;6359;51.450;7.346;2023-06-22T01:01:00;19.80;99.90
12588;DHT22;6359;51.450;7.346;2023-06-22T01:03:27;19.70;99.90
12588;DHT22;6359;51.450;7.346;2023-06-22T01:05:59;19.60;99.90
12588;DHT22;6359;51.450;7.346;2023-06-22T01:08:45;19.50;99.90
12588;DHT22;6359;51.450;7.346;2023-06-22T01:11:20;19.50;99.90
12588;DHT22;6359;51.450;7.346;2023-06-22T01:13:54;19.50;99.90
12588;DHT22;6359;51.450;7.346;2023-06-22T01:16:27;19.40;99.90
12588;DHT22;6359;51.450;7.346;2023-06-22T01:18:57;19.50;99.90
12588;DHT22;6359;51.450;7.346;2023-06-22T01:21:25;19.50;99.90
12588;DHT22;6359;51.450;7.346;2023-06-22T01:24:02;19.50;99.90
12588;DHT22;6359;51.450;7.346;2023-06-22T01:26:38;19.50;99.90
12588;DHT22;6359;51.450;7.346;2023-06-22T01:29:11;19.40;99.90
12588;DHT22;6359;51.450;7.346;2023-06-22T01:31:39;19.40;99.90
12588;DHT22;6359;51.450;7.346;2023-06-22T01:34:08;19.40;99.90
12588;DHT22;6359;51.450;7.346;2023-06-22T01:36:35;19.30;99.90
12588;DHT22;6359;51.450;7.346;2023-06-22T01:39:04;19.30;99.90
12588;DHT22;6359;51.450;7.346;2023-06-22T01:41:35;19.30;99.90
12588;DHT22;6359;51.450;7.346;2023-06-22T01:44:03;19.30;99.90
12588;DHT22;6359;51.450;7.346;2023-06-22T01:46:33;19.20;99.90
12588;DHT22;6359;51.450;7.346;2023-06-22T01:49:01;19.20;99.90
12588;DHT22;6359;51.450;7.346;2023-06-22T01:51:28;19.20;99.90
12588;DHT22;6359;51.450;7.346;2023-06-22T01:53:55;19.20;99.90
12588;DHT22;6359;51.450;7.346;2023-06-22T01:56:22;19.20;99.90
12588;DHT22;6359;51.450;7.346;2023-06-22T01:58:54;19.10;99.90
12588;DHT22;6359;51.450;7.346;2023-06-22T02:01:32;19.10;99.90
12588;DHT22;6359;51.450;7.346;2023-06-22T02:04:05;19.10;99.90
12588;DHT22;6359;51.450;7.346;2023-06-22T02:06:36;19.10;99.90
12588;DHT22;6359;51.450;7.346;2023-06-22T02:09:07;19.10;99.90
12588;DHT22;6359;51.450;7.346;2023-06-22T02:11:36;19.10;99.90
12588;DHT22;6359;51.450;7.346;2023-06-22T02:14:05;19.10;99.90
12588;DHT22;6359;51.450;7.346;2023-06-22T02:16:32;19.00;99.90
12588;DHT22;6359;51.450;7.346;2023-06-22T02:19:02;19.00;99.90
12588;DHT22;6359;51.450;7.346;2023-06-22T02:21:31;19.00;99.90
12588;DHT22;6359;51.450;7.346;2023-06-22T02:23:58;18.90;99.90
12588;DHT22;6359;51.450;7.346;2023-06-22T02:26:25;18.90;99.90
12588;DHT22;6359;51.450;7.346;2023-06-22T02:28:53;18.80;99.90
12588;DHT22;6359;51.450;7.346;2023-06-22T02:31:19;18.70;99.90
12588;DHT22;6359;51.450;7.346;2023-06-22T02:33:46;18.70;99.90
12588;DHT22;6359;51.450;7.346;2023-06-22T02:36:15;18.60;99.90
12588;DHT22;6359;51.450;7.346;2023-06-22T02:38:42;18.50;99.90
12588;DHT22;6359;51.450;7.346;2023-06-22T02:41:13;18.40;99.90
12588;DHT22;6359;51.450;7.346;2023-06-22T02:43:43;18.40;99.90
12588;DHT22;6359;51.450;7.346;2023-06-22T02:46:11;18.30;99.90
12588;DHT22;6359;51.450;7.346;2023-06-22T02:48:38;18.30;99.90
12588;DHT22;6359;51.450;7.346;2023-06-22T02:51:05;18.20;99.90
12588;DHT22;6359;51.450;7.346;2023-06-22T02:53:34;18.20;99.90
12588;DHT22;6359;51.450;7.346;2023-06-22T02:56:02;18.20;99.90
12588;DHT22;6359;51.450;7.346;2023-06-22T02:58:31;18.20;99.90
12588;DHT22;6359;51.450;7.346;2023-06-22T03:00:58;18.10;99.90
12588;DHT22;6359;51.450;7.346;2023-06-22T03:03:30;18.10;99.90
12588;DHT22;6359;51.450;7.346;2023-06-22T03:05:57;18.10;99.90
12588;DHT22;6359;51.450;7.346;2023-06-22T03:08:24;18.10;99.90
12588;DHT22;6359;51.450;7.346;2023-06-22T03:10:52;18.10;99.90
12588;DHT22;6359;51.450;7.346;2023-06-22T03:13:19;18.20;99.90
12588;DHT22;6359;51.450;7.346;2023-06-22T03:15:46;18.20;99.90
12588;DHT22;6359;51.450;7.346;2023-06-22T03:18:13;18.20;99.90
12588;DHT22;6359;51.450;7.346;2023-06-22T03:20:41;18.20;99.90
12588;DHT22;6359;51.450;7.346;2023-06-22T03:23:08;18.30;99.90
12588;DHT22;6359;51.450;7.346;2023-06-22T03:25:35;18.20;99.90
12588;DHT22;6359;51.450;7.346;2023-06-22T03:28:04;18.20;99.90
12588;DHT22;6359;51.450;7.346;2023-06-22T03:30:31;18.20;99.90
12588;DHT22;6359;51.450;7.346;2023-06-22T03:32:58;18.20;99.90
12588;DHT22;6359;51.450;7.346;2023-06-22T03:35:25;18.30;99.90
12588;DHT22;6359;51.450;7.346;2023-06-22T03:37:52;18.40;99.90
12588;DHT22;6359;51.450;7.346;2023-06-22T03:40:19;18.40;99.90
12588;DHT22;6359;51.450;7.346;2023-06-22T03:42:46;18.50;99.90
12588;DHT22;6359;51.450;7.346;2023-06-22T03:45:14;18.60;99.90
12588;DHT22;6359;51.450;7.346;2023-06-22T03:47:41;18.70;99.90
12588;DHT22;6359;51.450;7.346;2023-06-22T03:50:09;18.80;99.90
12588;DHT22;6359;51.450;7.346;2023-06-22T03:52:36;18.90;99.90
12588;DHT22;6359;51.450;7.346;2023-06-22T03:55:03;18.90;99.90
12588;DHT22;6359;51.450;7.346;2023-06-22T03:57:30;19.00;99.90
12588;DHT22;6359;51.450;7.346;2023-06-22T03:59:57;19.00;99.90
12588;DHT22;6359;51.450;7.346;2023-06-22T04:02:26;19.10;99.90
12588;DHT22;6359;51.450;7.346;2023-06-22T04:04:53;19.10;99.90
12588;DHT22;6359;51.450;7.346;2023-06-22T04:07:19;19.30;99.90
12588;DHT22;6359;51.450;7.346;2023-06-22T04:09:46;19.50;99.90
12588;DHT22;6359;51.450;7.346;2023-06-22T04:12:13;19.60;99.90
12588;DHT22;6359;51.450;7.346;2023-06-22T04:14:40;19.70;99.90
12588;DHT22;6359;51.450;7.346;2023-06-22T04:17:07;19.90;99.90
12588;DHT22;6359;51.450;7.346;2023-06-22T04:19:35;19.90;99.90
12588;DHT22;6359;51.450;7.346;2023-06-22T04:22:03;20.00;99.90
12588;DHT22;6359;51.450;7.346;2023-06-22T04:24:32;20.00;99.90
12588;DHT22;6359;51.450;7.346;2023-06-22T04:26:59;20.20;99.90
12588;DHT22;6359;51.450;7.346;2023-06-22T04:29:29;20.20;99.90
12588;DHT22;6359;51.450;7.346;2023-06-22T04:31:57;20.40;99.90
12588;DHT22;6359;51.450;7.346;2023-06-22T04:34:28;20.40;99.90
12588;DHT22;6359;51.450;7.346;2023-06-22T04:36:57;20.50;99.90
12588;DHT22;6359;51.450;7.346;2023-06-22T04:39:24;20.60;99.90
12588;DHT22;6359;51.450;7.346;2023-06-22T04:41:52;20.60;99.90
12588;DHT22;6359;51.450;7.346;2023-06-22T04:44:20;20.60;99.90
12588;DHT22;6359;51.450;7.346;2023-06-22T04:46:50;20.70;99.90
12588;DHT22;6359;51.450;7.346;2023-06-22T04:49:20;20.80;99.90
12588;DHT22;6359;51.450;7.346;2023-06-22T04:51:48;20.70;99.90
12588;DHT22;6359;51.450;7.346;2023-06-22T04:54:18;20.70;99.90
12588;DHT22;6359;51.450;7.346;2023-06-22T04:56:45;20.60;99.90
12588;DHT22;6359;51.450;7.346;2023-06-22T04:59:14;20.50;99.90
12588;DHT22;6359;51.450;7.346;2023-06-22T05:01:44;20.40;99.90
12588;DHT22;6359;51.450;7.346;2023-06-22T05:04:11;20.30;99.90
12588;DHT22;6359;51.450;7.346;2023-06-22T05:06:38;20.20;99.90
12588;DHT22;6359;51.450;7.346;2023-06-22T05:09:05;20.20;99.90
12588;DHT22;6359;51.450;7.346;2023-06-22T05:11:33;20.20;99.90
12588;DHT22;6359;51.450;7.346;2023-06-22T05:14:00;20.30;99.90
12588;DHT22;6359;51.450;7.346;2023-06-22T05:16:27;20.40;99.90
12588;DHT22;6359;51.450;7.346;2023-06-22T05:18:55;20.30;99.90
12588;DHT22;6359;51.450;7.346;2023-06-22T05:21:22;20.40;99.90
12588;DHT22;6359;51.450;7.346;2023-06-22T05:23:50;20.50;99.90
12588;DHT22;6359;51.450;7.346;2023-06-22T05:26:17;20.60;99.90
12588;DHT22;6359;51.450;7.346;2023-06-22T05:28:45;20.60;99.90
12588;DHT22;6359;51.450;7.346;2023-06-22T05:31:13;20.70;99.90
12588;DHT22;6359;51.450;7.346;2023-06-22T05:33:40;20.80;99.90
12588;DHT22;6359;51.450;7.346;2023-06-22T05:36:07;20.90;99.90
12588;DHT22;6359;51.450;7.346;2023-06-22T05:38:34;20.90;99.90
12588;DHT22;6359;51.450;7.346;2023-06-22T05:41:01;20.90;99.90
12588;DHT22;6359;51.450;7.346;2023-06-22T05:43:28;21.00;99.90
12588;DHT22;6359;51.450;7.346;2023-06-22T05:45:57;21.10;99.90
12588;DHT22;6359;51.450;7.346;2023-06-22T05:48:23;21.20;99.90
12588;DHT22;6359;51.450;7.346;2023-06-22T05:50:50;21.20;99.90
12588;DHT22;6359;51.450;7.346;2023-06-22T05:53:17;21.40;99.90
12588;DHT22;6359;51.450;7.346;2023-06-22T05:55:44;21.50;99.90
12588;DHT22;6359;51.450;7.346;2023-06-22T05:58:11;21.60;99.90
12588;DHT22;6359;51.450;7.346;2023-06-22T06:00:39;21.80;99.90
12588;DHT22;6359;51.450;7.346;2023-06-22T06:03:07;22.00;99.90
12588;DHT22;6359;51.450;7.346;2023-06-22T06:05:34;22.10;99.90
12588;DHT22;6359;51.450;7.346;2023-06-22T06:08:03;22.40;99.90
12588;DHT22;6359;51.450;7.346;2023-06-22T06:10:31;22.60;99.90
12588;DHT22;6359;51.450;7.346;2023-06-22T06:12:59;22.50;99.90
12588;DHT22;6359;51.450;7.346;2023-06-22T06:15:27;22.50;99.90
12588;DHT22;6359;51.450;7.346;2023-06-22T06:17:54;22.50;99.90
12588;DHT22;6359;51.450;7.346;2023-06-22T06:20:23;22.60;99.90
12588;DHT22;6359;51.450;7.346;2023-06-22T06:22:51;22.60;99.90
12588;DHT22;6359;51.450;7.346;2023-06-22T06:25:18;22.70;99.90
12588;DHT22;6359;51.450;7.346;2023-06-22T06:27:48;22.70;99.90
12588;DHT22;6359;51.450;7.346;2023-06-22T06:30:16;22.70;99.90
12588;DHT22;6359;51.450;7.346;2023-06-22T06:32:43;22.70;99.90
12588;DHT22;6359;51.450;7.346;2023-06-22T06:35:12;22.80;99.90
12588;DHT22;6359;51.450;7.346;2023-06-22T06:37:42;22.90;99.90
12588;DHT22;6359;51.450;7.346;2023-06-22T06:40:10;23.20;99.90
12588;DHT22;6359;51.450;7.346;2023-06-22T06:42:37;23.20;99.90
12588;DHT22;6359;51.450;7.346;2023-06-22T06:45:06;23.40;99.90
12588;DHT22;6359;51.450;7.346;2023-06-22T06:47:33;23.40;99.90
12588;DHT22;6359;51.450;7.346;2023-06-22T06:50:00;23.50;99.90
12588;DHT22;6359;51.450;7.346;2023-06-22T06:52:27;23.30;99.90
12588;DHT22;6359;51.450;7.346;2023-06-22T06:54:55;23.30;99.90
12588;DHT22;6359;51.450;7.346;2023-06-22T06:57:22;23.30;99.90
12588;DHT22;6359;51.450;7.346;2023-06-22T06:59:49;23.10;99.90
12588;DHT22;6359;51.450;7.346;2023-06-22T07:02:16;23.20;99.90
12588;DHT22;6359;51.450;7.346;2023-06-22T07:04:43;23.10;99.90
12588;DHT22;6359;51.450;7.346;2023-06-22T07:07:10;23.10;99.90
12588;DHT22;6359;51.450;7.346;2023-06-22T07:09:37;23.00;99.90
12588;DHT22;6359;51.450;7.346;2023-06-22T07:12:06;22.90;99.90
12588;DHT22;6359;51.450;7.346;2023-06-22T07:14:33;22.80;99.90
12588;DHT22;6359;51.450;7.346;2023-06-22T07:17:00;22.70;99.90
12588;DHT22;6359;51.450;7.346;2023-06-22T07:19:27;22.70;99.90
12588;DHT22;6359;51.450;7.346;2023-06-22T07:21:55;22.60;99.90
12588;DHT22;6359;51.450;7.346;2023-06-22T07:24:22;22.60;99.90
12588;DHT22;6359;51.450;7.346;2023-06-22T07:26:49;22.50;99.90
12588;DHT22;6359;51.450;7.346;2023-06-22T07:29:18;22.40;99.90
12588;DHT22;6359;51.450;7.346;2023-06-22T07:31:45;22.40;99.90
12588;DHT22;6359;51.450;7.346;2023-06-22T07:34:12;22.40;99.90
12588;DHT22;6359;51.450;7.346;2023-06-22T07:36:39;22.40;99.90
12588;DHT22;6359;51.450;7.346;2023-06-22T07:39:06;22.40;99.90
12588;DHT22;6359;51.450;7.346;2023-06-22T07:41:33;22.40;99.90
12588;DHT22;6359;51.450;7.346;2023-06-22T07:44:00;22.50;99.90
12588;DHT22;6359;51.450;7.346;2023-06-22T07:46:28;22.50;99.90
12588;DHT22;6359;51.450;7.346;2023-06-22T07:48:55;22.50;99.90
12588;DHT22;6359;51.450;7.346;2023-06-22T07:51:22;22.50;99.90
12588;DHT22;6359;51.450;7.346;2023-06-22T07:53:49;22.50;99.90
12588;DHT22;6359;51.450;7.346;2023-06-22T07:56:16;22.70;99.90
12588;DHT22;6359;51.450;7.346;2023-06-22T07:58:45;22.80;99.90
12588;DHT22;6359;51.450;7.346;2023-06-22T08:01:12;23.00;99.90
12588;DHT22;6359;51.450;7.346;2023-06-22T08:03:40;22.90;99.90
12588;DHT22;6359;51.450;7.346;2023-06-22T08:06:07;22.90;99.90
12588;DHT22;6359;51.450;7.346;2023-06-22T08:08:35;22.80;99.90
12588;DHT22;6359;51.450;7.346;2023-06-22T08:11:02;22.80;99.90
12588;DHT22;6359;51.450;7.346;2023-06-22T08:13:29;22.80;99.90
12588;DHT22;6359;51.450;7.346;2023-06-22T08:15:56;22.70;99.90
12588;DHT22;6359;51.450;7.346;2023-06-22T08:18:23;22.80;99.90
12588;DHT22;6359;51.450;7.346;2023-06-22T08:20:51;22.90;99.90
12588;DHT22;6359;51.450;7.346;2023-06-22T08:23:18;23.00;99.90
12588;DHT22;6359;51.450;7.346;2023-06-22T08:25:45;23.20;99.90
12588;DHT22;6359;51.450;7.346;2023-06-22T08:28:13;23.30;99.90
12588;DHT22;6359;51.450;7.346;2023-06-22T08:30:40;23.50;99.90
12588;DHT22;6359;51.450;7.346;2023-06-22T08:33:07;23.80;99.90
12588;DHT22;6359;51.450;7.346;2023-06-22T08:35:34;24.10;99.90
12588;DHT22;6359;51.450;7.346;2023-06-22T08:38:02;24.60;99.90
12588;DHT22;6359;51.450;7.346;2023-06-22T08:40:29;25.20;99.90
12588;DHT22;6359;51.450;7.346;2023-06-22T08:42:56;25.60;99.90
12588;DHT22;6359;51.450;7.346;2023-06-22T08:45:23;26.00;99.90
12588;DHT22;6359;51.450;7.346;2023-06-22T08:47:49;26.50;99.90
12588;DHT22;6359;51.450;7.346;2023-06-22T08:50:16;27.10;99.90
12588;DHT22;6359;51.450;7.346;2023-06-22T08:52:43;26.10;99.90
12588;DHT22;6359;51.450;7.346;2023-06-22T08:55:12;26.50;99.90
12588;DHT22;6359;51.450;7.346;2023-06-22T08:57:40;27.20;99.90
12588;DHT22;6359;51.450;7.346;2023-06-22T09:00:08;28.50;99.90
12588;DHT22;6359;51.450;7.346;2023-06-22T09:02:46;30.00;99.90
12588;DHT22;6359;51.450;7.346;2023-06-22T09:05:13;31.10;99.90
12588;DHT22;6359;51.450;7.346;2023-06-22T09:07:39;31.10;99.90
12588;DHT22;6359;51.450;7.346;2023-06-22T09:10:07;30.80;99.90
12588;DHT22;6359;51.450;7.346;2023-06-22T09:12:36;31.60;99.90
12588;DHT22;6359;51.450;7.346;2023-06-22T09:15:04;32.30;99.90
12588;DHT22;6359;51.450;7.346;2023-06-22T09:17:33;31.90;99.90
12588;DHT22;6359;51.450;7.346;2023-06-22T09:20:00;32.20;99.90
12588;DHT22;6359;51.450;7.346;2023-06-22T09:22:31;32.90;99.90
12588;DHT22;6359;51.450;7.346;2023-06-22T09:24:58;33.90;99.00
12588;DHT22;6359;51.450;7.346;2023-06-22T09:27:25;34.50;98.60
12588;DHT22;6359;51.450;7.346;2023-06-22T09:29:53;35.30;97.50
12588;DHT22;6359;51.450;7.346;2023-06-22T09:32:21;35.70;99.90
12588;DHT22;6359;51.450;7.346;2023-06-22T09:34:48;36.30;95.00
12588;DHT22;6359;51.450;7.346;2023-06-22T09:37:15;36.20;95.10
12588;DHT22;6359;51.450;7.346;2023-06-22T09:39:42;34.40;95.70
12588;DHT22;6359;51.450;7.346;2023-06-22T09:42:09;34.80;94.10
12588;DHT22;6359;51.450;7.346;2023-06-22T09:44:36;33.90;93.90
12588;DHT22;6359;51.450;7.346;2023-06-22T09:47:05;33.80;94.70
12588;DHT22;6359;51.450;7.346;2023-06-22T09:49:32;34.40;93.30
12588;DHT22;6359;51.450;7.346;2023-06-22T09:51:59;33.90;93.50
12588;DHT22;6359;51.450;7.346;2023-06-22T09:54:25;34.00;93.60
12588;DHT22;6359;51.450;7.346;2023-06-22T09:56:52;34.40;94.50
12588;DHT22;6359;51.450;7.346;2023-06-22T09:59:19;34.70;95.60
12588;DHT22;6359;51.450;7.346;2023-06-22T10:01:46;34.90;94.50
12588;DHT22;6359;51.450;7.346;2023-06-22T10:04:14;34.60;95.20
12588;DHT22;6359;51.450;7.346;2023-06-22T10:06:41;33.90;94.70
12588;DHT22;6359;51.450;7.346;2023-06-22T10:09:08;33.40;94.20
12588;DHT22;6359;51.450;7.346;2023-06-22T10:11:35;33.10;94.30
12588;DHT22;6359;51.450;7.346;2023-06-22T10:14:02;32.50;94.50
12588;DHT22;6359;51.450;7.346;2023-06-22T10:16:32;32.20;94.80
12588;DHT22;6359;51.450;7.346;2023-06-22T10:19:01;32.30;95.20
12588;DHT22;6359;51.450;7.346;2023-06-22T10:21:29;32.30;94.90
12588;DHT22;6359;51.450;7.346;2023-06-22T10:23:57;32.00;95.90
12588;DHT22;6359;51.450;7.346;2023-06-22T10:26:24;31.50;97.10
12588;DHT22;6359;51.450;7.346;2023-06-22T10:28:54;31.60;97.90
12588;DHT22;6359;51.450;7.346;2023-06-22T10:31:21;32.00;98.20
12588;DHT22;6359;51.450;7.346;2023-06-22T10:33:48;32.30;97.30
12588;DHT22;6359;51.450;7.346;2023-06-22T10:36:15;32.20;99.60
12588;DHT22;6359;51.450;7.346;2023-06-22T10:38:44;32.30;98.70
12588;DHT22;6359;51.450;7.346;2023-06-22T10:41:11;32.40;98.10
12588;DHT22;6359;51.450;7.346;2023-06-22T10:43:37;31.20;99.40
12588;DHT22;6359;51.450;7.346;2023-06-22T10:46:06;31.00;99.90
12588;DHT22;6359;51.450;7.346;2023-06-22T10:48:33;30.80;99.90
12588;DHT22;6359;51.450;7.346;2023-06-22T10:51:00;30.70;99.90
12588;DHT22;6359;51.450;7.346;2023-06-22T10:53:27;30.60;99.90
12588;DHT22;6359;51.450;7.346;2023-06-22T10:55:55;30.80;99.90
12588;DHT22;6359;51.450;7.346;2023-06-22T10:58:22;30.30;99.90
12588;DHT22;6359;51.450;7.346;2023-06-22T11:00:49;30.40;99.90
12588;DHT22;6359;51.450;7.346;2023-06-22T11:03:16;29.90;99.90
12588;DHT22;6359;51.450;7.346;2023-06-22T11:05:43;29.60;99.90
12588;DHT22;6359;51.450;7.346;2023-06-22T11:08:10;29.10;99.90
12588;DHT22;6359;51.450;7.346;2023-06-22T11:10:37;28.30;99.90
12588;DHT22;6359;51.450;7.346;2023-06-22T11:13:05;27.70;99.90
12588;DHT22;6359;51.450;7.346;2023-06-22T11:15:35;27.50;99.90
12588;DHT22;6359;51.450;7.346;2023-06-22T11:18:02;27.40;99.90
12588;DHT22;6359;51.450;7.346;2023-06-22T11:20:30;27.30;99.90
12588;DHT22;6359;51.450;7.346;2023-06-22T11:22:59;27.00;99.90
12588;DHT22;6359;51.450;7.346;2023-06-22T11:25:26;26.60;99.90
12588;DHT22;6359;51.450;7.346;2023-06-22T11:27:54;26.20;99.90
12588;DHT22;6359;51.450;7.346;2023-06-22T11:30:22;25.90;99.90
12588;DHT22;6359;51.450;7.346;2023-06-22T11:32:49;25.50;99.90
12588;DHT22;6359;51.450;7.346;2023-06-22T11:35:16;25.30;99.90
12588;DHT22;6359;51.450;7.346;2023-06-22T11:37:43;24.90;99.90
12588;DHT22;6359;51.450;7.346;2023-06-22T11:40:10;24.40;99.90
12588;DHT22;6359;51.450;7.346;2023-06-22T11:42:38;24.20;99.90
12588;DHT22;6359;51.450;7.346;2023-06-22T11:45:06;23.90;99.90
12588;DHT22;6359;51.450;7.346;2023-06-22T11:47:34;23.80;99.90
12588;DHT22;6359;51.450;7.346;2023-06-22T11:50:02;23.70;99.90
12588;DHT22;6359;51.450;7.346;2023-06-22T11:52:28;23.50;99.90
12588;DHT22;6359;51.450;7.346;2023-06-22T11:54:55;23.50;99.90
12588;DHT22;6359;51.450;7.346;2023-06-22T11:57:24;23.50;99.90
12588;DHT22;6359;51.450;7.346;2023-06-22T11:59:51;23.30;99.90
12588;DHT22;6359;51.450;7.346;2023-06-22T12:02:18;23.20;99.90
12588;DHT22;6359;51.450;7.346;2023-06-22T12:04:46;23.00;99.90
12588;DHT22;6359;51.450;7.346;2023-06-22T12:07:13;22.80;99.90
12588;DHT22;6359;51.450;7.346;2023-06-22T12:09:40;22.80;99.90
12588;DHT22;6359;51.450;7.346;2023-06-22T12:12:07;22.70;99.90
12588;DHT22;6359;51.450;7.346;2023-06-22T12:14:34;22.60;99.90
12588;DHT22;6359;51.450;7.346;2023-06-22T12:17:02;22.60;99.90
12588;DHT22;6359;51.450;7.346;2023-06-22T12:19:29;22.50;99.90
12588;DHT22;6359;51.450;7.346;2023-06-22T12:21:57;22.50;99.90
12588;DHT22;6359;51.450;7.346;2023-06-22T12:24:24;22.40;99.90
12588;DHT22;6359;51.450;7.346;2023-06-22T12:26:53;22.30;99.90
12588;DHT22;6359;51.450;7.346;2023-06-22T12:29:20;22.30;99.90
12588;DHT22;6359;51.450;7.346;2023-06-22T12:31:48;22.20;99.90
12588;DHT22;6359;51.450;7.346;2023-06-22T12:34:19;22.10;99.90
12588;DHT22;6359;51.450;7.346;2023-06-22T12:36:46;22.00;99.90
12588;DHT22;6359;51.450;7.346;2023-06-22T12:39:15;21.80;99.90
12588;DHT22;6359;51.450;7.346;2023-06-22T12:41:42;21.60;99.90
12588;DHT22;6359;51.450;7.346;2023-06-22T12:44:10;21.50;99.90
12588;DHT22;6359;51.450;7.346;2023-06-22T12:46:37;21.50;99.90
12588;DHT22;6359;51.450;7.346;2023-06-22T12:49:04;21.40;99.90
12588;DHT22;6359;51.450;7.346;2023-06-22T12:51:31;21.50;99.90
12588;DHT22;6359;51.450;7.346;2023-06-22T12:53:58;21.50;99.90
12588;DHT22;6359;51.450;7.346;2023-06-22T12:56:26;21.70;99.90
12588;DHT22;6359;51.450;7.346;2023-06-22T12:58:53;21.80;99.90
12588;DHT22;6359;51.450;7.346;2023-06-22T13:01:20;21.80;99.90
12588;DHT22;6359;51.450;7.346;2023-06-22T13:03:52;22.00;99.90
12588;DHT22;6359;51.450;7.346;2023-06-22T13:06:20;22.10;99.90
12588;DHT22;6359;51.450;7.346;2023-06-22T13:08:46;22.40;99.90
12588;DHT22;6359;51.450;7.346;2023-06-22T13:11:13;22.80;99.90
12588;DHT22;6359;51.450;7.346;2023-06-22T13:13:43;23.10;99.90
12588;DHT22;6359;51.450;7.346;2023-06-22T13:16:10;23.50;99.90
12588;DHT22;6359;51.450;7.346;2023-06-22T13:18:37;23.80;99.90
12588;DHT22;6359;51.450;7.346;2023-06-22T13:21:04;24.00;99.90
12588;DHT22;6359;51.450;7.346;2023-06-22T13:23:31;24.00;99.90
12588;DHT22;6359;51.450;7.346;2023-06-22T13:25:59;24.10;99.90
12588;DHT22;6359;51.450;7.346;2023-06-22T13:28:26;24.20;99.90
12588;DHT22;6359;51.450;7.346;2023-06-22T13:30:56;24.60;99.90
12588;DHT22;6359;51.450;7.346;2023-06-22T13:33:23;24.90;99.90
12588;DHT22;6359;51.450;7.346;2023-06-22T13:35:50;25.10;99.90
12588;DHT22;6359;51.450;7.346;2023-06-22T13:38:16;25.20;99.90
12588;DHT22;6359;51.450;7.346;2023-06-22T13:40:44;25.00;99.90
12588;DHT22;6359;51.450;7.346;2023-06-22T13:43:11;24.90;99.90
12588;DHT22;6359;51.450;7.346;2023-06-22T13:45:37;24.70;99.90
12588;DHT22;6359;51.450;7.346;2023-06-22T13:48:06;24.60;99.90
12588;DHT22;6359;51.450;7.346;2023-06-22T13:50:33;24.40;99.90
12588;DHT22;6359;51.450;7.346;2023-06-22T13:53:00;24.70;99.90
12588;DHT22;6359;51.450;7.346;2023-06-22T13:55:27;24.90;99.90
12588;DHT22;6359;51.450;7.346;2023-06-22T13:57:53;24.70;99.90
12588;DHT22;6359;51.450;7.346;2023-06-22T14:00:20;24.40;99.90
12588;DHT22;6359;51.450;7.346;2023-06-22T14:02:47;24.00;99.90
12588;DHT22;6359;51.450;7.346;2023-06-22T14:05:16;23.90;99.90
12588;DHT22;6359;51.450;7.346;2023-06-22T14:07:42;24.00;99.90
12588;DHT22;6359;51.450;7.346;2023-06-22T14:10:10;24.10;99.90
12588;DHT22;6359;51.450;7.346;2023-06-22T14:12:37;24.10;99.90
12588;DHT22;6359;51.450;7.346;2023-06-22T14:15:04;24.30;99.90
12588;DHT22;6359;51.450;7.346;2023-06-22T14:17:31;24.40;99.90
12588;DHT22;6359;51.450;7.346;2023-06-22T14:19:58;24.50;99.90
12588;DHT22;6359;51.450;7.346;2023-06-22T14:22:26;24.30;99.90
12588;DHT22;6359;51.450;7.346;2023-06-22T14:24:55;24.30;99.90
12588;DHT22;6359;51.450;7.346;2023-06-22T14:27:23;24.10;99.90
12588;DHT22;6359;51.450;7.346;2023-06-22T14:29:50;24.30;99.90
12588;DHT22;6359;51.450;7.346;2023-06-22T14:32:17;24.30;99.90
12588;DHT22;6359;51.450;7.346;2023-06-22T14:34:43;24.10;99.90
12588;DHT22;6359;51.450;7.346;2023-06-22T14:37:10;24.10;99.90
12588;DHT22;6359;51.450;7.346;2023-06-22T14:39:39;24.40;99.90
12588;DHT22;6359;51.450;7.346;2023-06-22T14:42:06;24.50;99.90
12588;DHT22;6359;51.450;7.346;2023-06-22T14:44:33;24.40;99.90
12588;DHT22;6359;51.450;7.346;2023-06-22T14:47:00;24.30;99.90
12588;DHT22;6359;51.450;7.346;2023-06-22T14:49:27;24.20;99.90
12588;DHT22;6359;51.450;7.346;2023-06-22T14:51:54;24.20;99.90
12588;DHT22;6359;51.450;7.346;2023-06-22T14:54:21;24.10;99.90
12588;DHT22;6359;51.450;7.346;2023-06-22T14:56:50;23.90;99.90
12588;DHT22;6359;51.450;7.346;2023-06-22T14:59:17;24.00;99.90
12588;DHT22;6359;51.450;7.346;2023-06-22T15:01:44;24.20;99.90
12588;DHT22;6359;51.450;7.346;2023-06-22T15:04:11;24.50;99.90
12588;DHT22;6359;51.450;7.346;2023-06-22T15:06:38;24.90;99.90
12588;DHT22;6359;51.450;7.346;2023-06-22T15:09:06;25.30;99.90
12588;DHT22;6359;51.450;7.346;2023-06-22T15:11:33;25.60;99.90
12588;DHT22;6359;51.450;7.346;2023-06-22T15:14:01;25.70;99.90
12588;DHT22;6359;51.450;7.346;2023-06-22T15:16:28;25.50;99.90
12588;DHT22;6359;51.450;7.346;2023-06-22T15:18:55;25.30;99.90
12588;DHT22;6359;51.450;7.346;2023-06-22T15:21:22;24.80;99.90
12588;DHT22;6359;51.450;7.346;2023-06-22T15:23:49;24.60;99.90
12588;DHT22;6359;51.450;7.346;2023-06-22T15:26:15;24.40;99.90
12588;DHT22;6359;51.450;7.346;2023-06-22T15:28:42;23.90;99.90
12588;DHT22;6359;51.450;7.346;2023-06-22T15:31:11;23.70;99.90
12588;DHT22;6359;51.450;7.346;2023-06-22T15:33:37;23.40;99.90
12588;DHT22;6359;51.450;7.346;2023-06-22T15:36:05;23.30;99.90
12588;DHT22;6359;51.450;7.346;2023-06-22T15:38:32;23.20;99.90
12588;DHT22;6359;51.450;7.346;2023-06-22T15:40:59;23.10;99.90
12588;DHT22;6359;51.450;7.346;2023-06-22T15:43:26;23.00;99.90
12588;DHT22;6359;51.450;7.346;2023-06-22T15:45:53;22.80;99.90
12588;DHT22;6359;51.450;7.346;2023-06-22T15:48:21;22.70;99.90